Time;durP1;ratioP1;P1;durP2;ratioP2;P2;SDS_P1;SDS_P2;PMS_P1;PMS_P2;Temp;Humidity;BMP_temperature;BMP_pressure;BME280_temperature;BME280_humidity;BME280_pressure;Samples;Min_cycle;Max_cycle;Signal;HPM_P1;HPM_P2
2022/06/01 00:01:12;;;;;;;2.53;1.80;;;;;;;19.70;50.41;101282.66;5127748;27;20034;-58
2022/06/01 00:03:40;;;;;;;2.38;1.75;;;;;;;19.70;50.49;101286.19;5114821;28;20047;-59
2022/06/01 00:06:05;;;;;;;2.60;2.00;;;;;;;19.68;50.10;101284.69;5105040;28;20020;-58
2022/06/01 00:08:31;;;;;;;2.53;2.00;;;;;;;19.63;50.21;101270.84;5117116;28;20030;-59
2022/06/01 00:10:57;;;;;;;3.42;2.03;;;;;;;19.68;50.43;101282.00;5117002;28;20023;-58
2022/06/01 00:13:23;;;;;;;2.13;1.65;;;;;;;19.67;50.41;101278.44;5109203;28;20690;-58
2022/06/01 00:15:48;;;;;;;2.25;1.67;;;;;;;19.68;50.09;101284.69;5094445;28;20032;-59
2022/06/01 00:18:14;;;;;;;2.55;2.00;;;;;;;19.63;50.52;101276.25;5089131;28;20070;-59
2022/06/01 00:20:40;;;;;;;2.63;1.85;;;;;;;19.67;49.92;101289.25;5117950;28;20024;-58
2022/06/01 00:23:06;;;;;;;2.92;2.20;;;;;;;19.68;50.10;101284.69;5106592;28;20039;-58
2022/06/01 00:25:32;;;;;;;2.10;1.73;;;;;;;19.68;50.49;101290.94;5118279;28;20016;-58
2022/06/01 00:27:57;;;;;;;2.92;1.83;;;;;;;19.67;50.45;101288.41;5112465;28;20023;-58
2022/06/01 00:30:23;;;;;;;2.38;1.98;;;;;;;19.68;50.61;101292.78;5091321;28;20024;-58
2022/06/01 00:32:49;;;;;;;2.38;1.75;;;;;;;19.67;50.25;101291.09;5116287;28;20015;-59
2022/06/01 00:35:16;;;;;;;2.67;2.03;;;;;;;19.62;50.38;101282.63;5098384;28;20020;-58
2022/06/01 00:37:41;;;;;;;2.05;1.70;;;;;;;19.60;50.43;101282.78;5115163;28;20023;-58
2022/06/01 00:40:08;;;;;;;3.30;2.10;;;;;;;19.66;50.26;101290.22;5111869;28;20098;-58
2022/06/01 00:42:36;;;;;;;2.50;1.77;;;;;;;19.66;50.45;101300.19;5116039;28;20028;-55
2022/06/01 00:45:02;;;;;;;2.38;2.03;;;;;;;19.66;50.38;101294.78;5113434;28;20041;-58
2022/06/01 00:47:28;;;;;;;2.10;1.80;;;;;;;19.65;50.20;101301.19;5091394;28;20087;-58
2022/06/01 00:50:14;;;;;;;2.70;1.90;;;;;;;19.65;50.19;101301.19;5123059;28;20030;-58
2022/06/01 00:53:09;;;;;;;2.45;2.10;;;;;;;19.64;50.19;101297.66;5088478;28;20023;-58
2022/06/01 00:55:42;;;;;;;3.22;2.35;;;;;;;19.64;50.03;101297.66;5102711;28;20127;-57
2022/06/01 00:58:12;;;;;;;2.47;2.03;;;;;;;19.64;50.51;101303.06;5088417;28;20016;-58
2022/06/01 01:00:42;;;;;;;2.28;1.83;;;;;;;19.63;50.47;101295.13;5089325;28;20023;-59
2022/06/01 01:03:10;;;;;;;3.15;2.38;;;;;;;19.63;50.59;101301.38;5111247;28;20030;-57
2022/06/01 01:05:38;;;;;;;3.45;2.20;;;;;;;19.63;50.43;101300.53;5098506;28;20020;-58
2022/06/01 01:08:04;;;;;;;2.33;2.13;;;;;;;19.61;50.44;101299.81;5092507;28;20019;-58
2022/06/01 01:10:30;;;;;;;2.30;1.95;;;;;;;19.62;50.37;101298.81;5118081;28;20028;-58
2022/06/01 01:12:56;;;;;;;2.53;2.33;;;;;;;19.59;50.19;101299.13;5120717;28;20065;-58
2022/06/01 01:15:23;;;;;;;3.75;2.20;;;;;;;19.62;50.09;101301.50;5096883;28;20106;-58
2022/06/01 01:17:48;;;;;;;1.85;1.75;;;;;;;19.58;49.99;101297.41;5105033;28;20030;-58
2022/06/01 01:20:14;;;;;;;3.15;2.40;;;;;;;19.61;50.01;101299.81;5094381;28;20040;-58
2022/06/01 01:22:48;;;;;;;3.00;2.45;;;;;;;19.60;50.28;101296.25;5108652;28;20050;-58
2022/06/01 01:25:18;;;;;;;2.80;2.60;;;;;;;19.61;50.08;101305.22;5089711;28;20024;-58
2022/06/01 01:27:51;;;;;;;4.28;2.78;;;;;;;19.60;50.16;101298.13;5102286;28;20028;-58
2022/06/01 01:30:40;;;;;;;2.53;2.17;;;;;;;19.60;50.15;101296.25;5113311;28;20062;-58
2022/06/01 01:33:13;;;;;;;2.45;2.25;;;;;;;19.59;50.37;101297.28;5101221;28;20114;-57
2022/06/01 01:35:41;;;;;;;4.70;2.60;;;;;;;19.59;50.09;101293.75;5113061;28;20026;-58
2022/06/01 01:38:10;;;;;;;2.97;2.67;;;;;;;19.59;50.19;101296.44;5140222;27;20027;-58
2022/06/01 01:40:36;;;;;;;3.17;2.40;;;;;;;19.57;50.34;101288.47;5112623;28;20044;-58
2022/06/01 01:43:02;;;;;;;2.97;2.38;;;;;;;19.58;50.24;101294.72;5111877;28;20061;-58
2022/06/01 01:45:33;;;;;;;3.33;2.60;;;;;;;19.58;50.00;101292.91;5096843;28;20035;-57
2022/06/01 01:47:58;;;;;;;3.50;2.85;;;;;;;19.57;49.50;101296.56;5120664;28;20032;-59
2022/06/01 01:50:25;;;;;;;3.15;2.85;;;;;;;19.56;49.91;101300.28;5116600;28;20027;-58
2022/06/01 01:52:51;;;;;;;3.08;2.78;;;;;;;19.57;49.75;101296.56;5094223;28;20110;-58
2022/06/01 01:55:57;;;;;;;3.40;2.60;;;;;;;19.58;49.85;101289.31;5121955;28;20087;-59
2022/06/01 01:58:48;;;;;;;3.05;2.75;;;;;;;19.58;50.17;101289.31;5074578;28;20480;-58
2022/06/01 02:01:19;;;;;;;4.70;3.38;;;;;;;19.52;50.07;101281.91;5120579;28;20062;-58
2022/06/01 02:03:52;;;;;;;3.35;2.85;;;;;;;19.55;49.77;101285.13;5095346;28;20030;-58
2022/06/01 02:06:38;;;;;;;3.47;3.15;;;;;;;19.56;50.15;101283.28;5093942;28;20103;-58
2022/06/01 02:09:06;;;;;;;3.28;2.97;;;;;;;19.54;49.77;101286.13;5098598;28;20085;-58
2022/06/01 02:14:52;;;;;;;3.30;2.67;;;;;;;19.54;49.98;101285.28;5119860;28;20031;-58
2022/06/01 02:17:19;;;;;;;;;;;;;;;19.52;49.78;101288.13;5106320;28;20057;-58
2022/06/01 02:19:47;;;;;;;3.03;2.72;;;;;;;19.52;49.98;101285.44;5119176;28;19915;-58
2022/06/01 02:22:13;;;;;;;3.30;3.00;;;;;;;19.52;50.34;101287.31;5105707;28;20102;-58
2022/06/01 02:24:39;;;;;;;3.45;2.88;;;;;;;19.50;50.20;101279.38;5106908;28;20381;-58
2022/06/01 02:27:05;;;;;;;3.55;3.20;;;;;;;19.51;50.01;101288.31;5105261;28;20045;-58
2022/06/01 02:29:35;;;;;;;4.40;4.00;;;;;;;19.40;49.99;101274.09;5087263;28;20024;-58
2022/06/01 02:32:03;;;;;;;3.65;3.30;;;;;;;19.47;49.89;101282.41;5087401;28;20569;-58
2022/06/01 02:34:29;;;;;;;4.22;3.67;;;;;;;19.50;50.16;101290.16;5112851;28;20019;-58
2022/06/01 02:36:56;;;;;;;3.67;3.28;;;;;;;19.49;49.95;101289.28;5115073;27;20019;-58
2022/06/01 02:39:21;;;;;;;3.53;3.03;;;;;;;19.44;50.06;101280.84;5093366;28;20111;-58
2022/06/01 02:44:30;;;;;;;4.25;3.83;;;;;;;19.49;50.24;101283.06;5112145;28;20035;-58
2022/06/01 02:46:57;;;;;;;4.13;3.42;;;;;;;19.49;50.15;101280.38;5118144;28;20019;-59
2022/06/01 02:49:22;;;;;;;3.60;3.22;;;;;;;19.48;50.09;101281.38;5110885;28;20099;-58
2022/06/01 02:51:48;;;;;;;3.20;2.90;;;;;;;19.49;50.33;101280.38;5115150;28;20028;-58
2022/06/01 02:54:13;;;;;;;4.07;3.67;;;;;;;19.48;49.92;101279.53;5119675;28;20027;-58
2022/06/01 02:56:39;;;;;;;3.40;3.10;;;;;;;19.42;49.95;101260.47;5113357;28;20031;-56
2022/06/01 02:59:05;;;;;;;3.65;3.35;;;;;;;19.46;50.05;101276.16;5092595;28;20039;-58
2022/06/01 03:01:31;;;;;;;4.40;3.88;;;;;;;19.47;50.02;101275.16;5119230;28;20057;-59
2022/06/01 03:03:57;;;;;;;3.83;3.42;;;;;;;19.47;50.15;101277.84;5117169;28;20023;-57
2022/06/01 03:06:23;;;;;;;4.05;3.50;;;;;;;19.46;50.16;101278.84;5111242;28;20067;-59
2022/06/01 03:08:48;;;;;;;3.65;3.30;;;;;;;19.47;50.23;101282.41;5114946;28;20049;-58
2022/06/01 03:11:13;;;;;;;3.33;3.03;;;;;;;19.46;50.00;101284.25;5119037;28;20053;-58
2022/06/01 03:13:39;;;;;;;3.58;3.22;;;;;;;19.40;49.84;101276.78;5112494;28;20049;-57
2022/06/01 03:16:04;;;;;;;3.90;3.58;;;;;;;19.41;50.17;101278.50;5110973;28;20028;-57
2022/06/01 03:18:31;;;;;;;3.42;3.13;;;;;;;19.41;50.21;101273.13;5117740;28;20408;-57
2022/06/01 03:20:57;;;;;;;3.72;3.42;;;;;;;19.45;50.17;101279.88;5117327;28;20023;-58
2022/06/01 03:23:24;;;;;;;4.28;3.85;;;;;;;19.45;50.13;101274.47;5105962;28;20048;-58
2022/06/01 03:25:49;;;;;;;3.97;3.63;;;;;;;19.41;50.00;101273.13;5115571;28;20023;-58
2022/06/01 03:28:15;;;;;;;4.03;3.63;;;;;;;19.45;50.23;101273.59;5107579;28;20050;-58
2022/06/01 03:30:41;;;;;;;4.30;3.90;;;;;;;19.44;50.05;101280.84;5113226;28;20019;-58
2022/06/01 03:33:06;;;;;;;4.28;3.88;;;;;;;19.39;50.07;101275.13;5109474;28;20047;-57
2022/06/01 03:35:32;;;;;;;5.35;4.47;;;;;;;19.44;50.19;101278.16;5104452;28;20032;-57
2022/06/01 03:37:58;;;;;;;3.45;3.15;;;;;;;19.43;49.85;101281.88;5126567;27;20079;-58
2022/06/01 03:40:26;;;;;;;4.50;4.10;;;;;;;19.44;50.13;101275.47;5104099;28;20040;-57
2022/06/01 03:42:51;;;;;;;4.32;3.90;;;;;;;19.43;50.10;101281.03;5103414;28;20027;-58
2022/06/01 03:48:02;;;;;;;3.90;3.50;;;;;;;19.38;50.17;101272.59;5104063;28;20039;-58
2022/06/01 03:50:28;;;;;;;5.25;4.75;;;;;;;19.42;50.39;101274.78;5117464;28;20019;-58
2022/06/01 03:52:54;;;;;;;4.50;4.10;;;;;;;19.42;50.31;101276.66;5109978;28;20043;-57
2022/06/01 03:55:20;;;;;;;4.20;3.80;;;;;;;19.42;50.31;101271.25;5112966;28;20027;-58
2022/06/01 03:57:46;;;;;;;4.30;3.88;;;;;;;19.42;50.44;101271.25;5117934;28;20710;-58
2022/06/01 04:00:14;;;;;;;3.88;3.47;;;;;;;19.41;50.65;101273.13;5095394;28;20066;-58
2022/06/01 04:02:41;;;;;;;4.57;4.18;;;;;;;19.38;50.27;101268.03;5109957;28;20036;-57
2022/06/01 04:05:07;;;;;;;4.10;3.70;;;;;;;19.35;49.99;101262.97;5097741;28;20028;-58
2022/06/01 04:07:32;;;;;;;3.50;3.10;;;;;;;19.40;50.15;101275.97;5096080;28;20028;-58
2022/06/01 04:09:58;;;;;;;4.38;3.72;;;;;;;19.38;49.87;101273.44;5107130;28;20020;-58
2022/06/01 04:12:23;;;;;;;3.38;3.08;;;;;;;19.39;50.22;101277.81;5106705;28;20028;-58
2022/06/01 04:14:49;;;;;;;4.40;4.00;;;;;;;19.39;50.06;101282.38;5089974;28;20024;-57
2022/06/01 04:17:14;;;;;;;3.83;3.17;;;;;;;19.39;50.34;101291.28;5103519;28;20069;-56
2022/06/01 04:19:39;;;;;;;3.72;3.30;;;;;;;19.39;50.13;101285.06;5108040;28;20051;-58
2022/06/01 04:22:06;;;;;;;3.30;3.00;;;;;;;19.39;49.61;101285.06;5087633;28;20472;-58
2022/06/01 04:24:32;;;;;;;3.15;2.88;;;;;;;19.38;50.04;101289.63;5073341;28;20042;-57
2022/06/01 04:26:58;;;;;;;4.05;3.65;;;;;;;19.39;50.09;101295.84;5106640;28;20036;-58
2022/06/01 04:29:23;;;;;;;4.53;3.58;;;;;;;19.34;50.05;101284.72;5104518;28;20039;-58
2022/06/01 04:31:49;;;;;;;4.55;3.70;;;;;;;19.38;50.03;101286.91;5105328;28;20101;-58
2022/06/01 04:34:16;;;;;;;2.65;2.45;;;;;;;19.38;50.48;101291.47;5107318;28;20087;-58
2022/06/01 04:36:41;;;;;;;4.22;3.47;;;;;;;19.33;50.20;101275.78;5107840;28;20077;-58
2022/06/01 04:39:07;;;;;;;3.38;3.08;;;;;;;19.38;50.13;101283.38;5106335;28;20063;-57
2022/06/01 04:41:32;;;;;;;2.85;2.55;;;;;;;19.34;50.13;101274.75;5112865;28;20028;-58
2022/06/01 04:43:58;;;;;;;3.28;2.40;;;;;;;19.36;50.16;101282.69;5106174;28;20028;-58
2022/06/01 04:46:23;;;;;;;2.95;2.60;;;;;;;19.36;50.03;101288.06;5111491;28;20022;-58
2022/06/01 04:48:48;;;;;;;2.20;1.95;;;;;;;19.37;49.98;101292.44;5117861;28;20430;-58
2022/06/01 04:51:14;;;;;;;2.40;2.20;;;;;;;19.36;50.17;101288.06;5103236;28;20028;-56
2022/06/01 04:53:42;;;;;;;2.40;2.20;;;;;;;19.37;50.34;101289.75;5105875;28;20107;-57
2022/06/01 04:56:10;;;;;;;2.90;2.30;;;;;;;19.37;49.70;101296.03;5107341;28;20024;-58
2022/06/01 04:58:36;;;;;;;1.98;1.77;;;;;;;19.36;50.08;101298.84;5102560;28;20052;-57
2022/06/01 05:01:01;;;;;;;2.38;2.03;;;;;;;19.36;49.97;101290.78;5105628;28;20032;-58
2022/06/01 05:03:27;;;;;;;3.00;2.22;;;;;;;19.37;50.03;101293.31;5102792;28;20446;-58
2022/06/01 05:05:52;;;;;;;2.08;1.88;;;;;;;19.37;50.13;101287.94;5102520;28;20161;-56
2022/06/01 05:08:17;;;;;;;2.38;2.17;;;;;;;19.37;49.96;101281.66;5105614;28;20030;-57
2022/06/01 05:10:43;;;;;;;2.47;1.92;;;;;;;19.22;50.44;101263.41;5106507;28;20038;-58
2022/06/01 05:13:10;;;;;;;2.17;1.92;;;;;;;19.30;50.52;101276.09;5107576;28;20404;-55
2022/06/01 05:15:47;;;;;;;2.70;2.20;;;;;;;19.35;50.65;101281.84;5104249;28;20080;-58
2022/06/01 05:18:12;;;;;;;2.38;2.03;;;;;;;19.34;50.63;101280.16;5103680;28;20533;-57
2022/06/01 05:20:38;;;;;;;2.88;1.70;;;;;;;19.34;50.33;101282.84;5111697;28;20024;-58
2022/06/01 05:23:03;;;;;;;2.35;1.70;;;;;;;19.33;50.20;101285.72;5108279;28;20024;-56
2022/06/01 05:25:29;;;;;;;2.30;2.05;;;;;;;19.36;50.03;101290.78;5109860;28;20044;-56
2022/06/01 05:27:54;;;;;;;1.40;1.30;;;;;;;19.36;49.76;101288.91;5093241;28;20030;-55
2022/06/01 05:30:19;;;;;;;1.88;1.63;;;;;;;19.37;50.04;101295.16;5103343;28;20032;-54
2022/06/01 05:32:45;;;;;;;1.75;1.48;;;;;;;19.37;49.53;101297.84;5115842;28;20023;-55
2022/06/01 05:35:10;;;;;;;2.78;1.52;;;;;;;19.38;49.74;101291.47;5103527;28;20077;-54
2022/06/01 05:37:35;;;;;;;2.20;1.88;;;;;;;19.39;49.52;101293.16;5112277;28;20015;-53
2022/06/01 05:40:00;;;;;;;1.83;1.40;;;;;;;19.38;49.51;101286.91;5110038;28;20514;-54
2022/06/01 05:42:26;;;;;;;1.50;1.40;;;;;;;19.39;49.86;101296.69;5111821;27;20038;-54
2022/06/01 05:44:52;;;;;;;1.55;1.40;;;;;;;19.34;49.57;101288.25;5112210;27;20028;-52
2022/06/01 05:47:18;;;;;;;1.83;1.38;;;;;;;19.36;49.71;101294.31;5108932;27;20031;-50
2022/06/01 05:49:43;;;;;;;1.60;1.17;;;;;;;19.39;49.63;101294.00;5093834;28;20080;-51
2022/06/01 05:52:08;;;;;;;1.88;1.55;;;;;;;19.40;49.58;101313.72;5114544;28;20024;-54
2022/06/01 05:54:34;;;;;;;1.70;1.33;;;;;;;19.40;49.56;101306.47;5115490;27;20143;-52
2022/06/01 05:56:59;;;;;;;1.70;1.45;;;;;;;19.41;49.49;101307.31;5111777;28;20053;-54
2022/06/01 05:59:24;;;;;;;1.38;1.27;;;;;;;19.40;49.62;101303.75;5111535;28;20088;-58
2022/06/01 06:01:49;;;;;;;1.67;1.30;;;;;;;19.41;49.55;101307.31;5106716;28;20039;-52
2022/06/01 06:04:15;;;;;;;1.50;1.10;;;;;;;19.42;49.26;101309.84;5117044;28;20921;-52
2022/06/01 06:06:40;;;;;;;1.33;1.23;;;;;;;19.39;49.36;101302.06;5118187;27;20525;-50
2022/06/01 06:09:07;;;;;;;2.22;1.15;;;;;;;19.43;49.49;101311.53;5111289;28;20116;-52
2022/06/01 06:11:38;;;;;;;1.30;1.20;;;;;;;19.43;49.45;101311.53;5115057;28;20028;-51
2022/06/01 06:14:03;;;;;;;1.90;1.30;;;;;;;19.44;49.27;101312.38;5092408;28;20035;-50
2022/06/01 06:16:32;;;;;;;1.13;1.02;;;;;;;19.44;49.39;101310.53;5116899;27;20024;-52
2022/06/01 06:18:57;;;;;;;1.70;1.30;;;;;;;19.44;48.76;101317.78;5109973;28;20031;-54
2022/06/01 06:21:24;;;;;;;1.38;1.27;;;;;;;19.44;49.06;101315.91;5113126;28;20020;-52
2022/06/01 06:23:50;;;;;;;1.73;1.40;;;;;;;19.44;49.34;101321.31;5116187;28;20081;-54
2022/06/01 06:26:15;;;;;;;1.65;1.38;;;;;;;19.44;49.06;101312.38;5115345;27;20579;-49
2022/06/01 06:28:41;;;;;;;1.95;1.40;;;;;;;19.43;49.02;101314.22;5109873;28;20024;-52
2022/06/01 06:31:07;;;;;;;2.40;1.33;;;;;;;19.44;49.08;101313.22;5110154;28;20027;-52
2022/06/01 06:33:32;;;;;;;1.98;1.85;;;;;;;19.44;49.26;101318.63;5110942;28;20023;-52
2022/06/01 06:36:00;;;;;;;1.52;1.33;;;;;;;19.31;49.21;101303.91;5114074;28;20035;-51
2022/06/01 06:38:27;;;;;;;2.10;1.30;;;;;;;19.44;49.34;101329.41;5096907;28;20020;-51
2022/06/01 06:40:54;;;;;;;1.35;1.10;;;;;;;19.44;48.97;101337.50;5117341;28;20047;-49
2022/06/01 06:43:21;;;;;;;2.40;1.15;;;;;;;19.44;49.14;101340.19;5119143;28;20137;-51
2022/06/01 06:45:51;;;;;;;1.90;1.20;;;;;;;19.41;48.95;101335.13;5113750;27;20091;-50
2022/06/01 06:48:17;;;;;;;2.08;1.45;;;;;;;19.46;48.59;101334.66;5121402;27;20023;-51
2022/06/01 06:50:42;;;;;;;1.80;1.63;;;;;;;19.46;48.83;101340.88;5120274;28;20030;-48
2022/06/01 06:53:08;;;;;;;1.95;1.27;;;;;;;19.47;48.93;101344.41;5117762;28;20015;-52
2022/06/01 06:55:33;;;;;;;2.33;1.73;;;;;;;19.48;49.18;101349.66;5121694;28;20027;-50
2022/06/01 06:57:58;;;;;;;1.70;1.40;;;;;;;19.49;48.74;101350.47;5116847;28;20031;-49
2022/06/01 07:00:23;;;;;;;2.17;1.70;;;;;;;19.49;48.75;101353.19;5113715;28;20069;-51
2022/06/01 07:02:49;;;;;;;2.00;1.45;;;;;;;19.49;48.70;101345.94;5111852;28;20027;-48
2022/06/01 07:06:08;;;;;;;1.92;1.40;;;;;;;19.49;48.74;101353.19;5105422;28;20032;-53
2022/06/01 07:08:01;;;;;;;1.48;1.38;;;;;;;19.49;48.51;101353.19;5108916;28;20031;-48
2022/06/01 07:10:27;;;;;;;1.65;1.27;;;;;;;19.50;48.54;101360.28;5096645;28;20034;-52
2022/06/01 07:12:53;;;;;;;1.88;1.17;;;;;;;19.49;48.44;101359.41;5108200;28;20389;-49
2022/06/01 07:15:18;;;;;;;1.38;1.02;;;;;;;19.48;48.41;101357.72;5090632;28;20081;-49
2022/06/01 07:17:43;;;;;;;1.33;1.10;;;;;;;19.49;48.57;101366.66;5108633;28;20055;-50
2022/06/01 07:20:09;;;;;;;1.75;1.20;;;;;;;19.49;48.67;101364.81;5108070;28;20435;-49
2022/06/01 07:22:35;;;;;;;1.02;0.90;;;;;;;19.50;48.28;101368.38;5108702;28;20016;-51
2022/06/01 07:25:00;;;;;;;1.15;1.05;;;;;;;19.51;48.79;101371.91;5112412;28;20091;-50
2022/06/01 07:27:25;;;;;;;1.52;1.10;;;;;;;19.49;48.34;101364.81;5111039;28;20034;-51
2022/06/01 07:29:50;;;;;;;1.23;1.13;;;;;;;19.49;48.32;101370.19;5116901;28;20082;-54
2022/06/01 07:32:16;;;;;;;1.42;1.23;;;;;;;19.49;48.55;101362.13;5097997;28;20023;-51
2022/06/01 07:34:41;;;;;;;1.27;1.17;;;;;;;19.49;48.58;101364.81;5114672;28;20032;-50
2022/06/01 07:45:18;;;;;;;1.10;1.00;;;;;;;19.51;48.22;101374.63;5102186;28;20735;-51
2022/06/01 07:47:43;;;;;;;1.30;1.10;;;;;;;19.48;48.48;101373.91;5110132;28;20027;-48
2022/06/01 07:50:09;;;;;;;1.27;1.00;;;;;;;19.48;48.51;101373.91;5112839;28;20078;-50
2022/06/01 07:52:34;;;;;;;1.48;1.02;;;;;;;19.48;48.59;101370.38;5118801;28;20020;-47
2022/06/01 07:54:59;;;;;;;1.33;1.20;;;;;;;19.48;48.25;101364.97;5113117;28;20241;-51
2022/06/01 07:57:25;;;;;;;0.90;0.90;;;;;;;19.50;48.54;101368.38;5109063;28;20107;-53
2022/06/01 07:59:50;;;;;;;1.45;1.25;;;;;;;19.50;48.35;101368.38;5103993;28;20100;-51
2022/06/01 08:02:15;;;;;;;0.90;0.90;;;;;;;19.53;47.94;101375.28;5116569;28;20035;-52
2022/06/01 08:04:41;;;;;;;1.23;0.90;;;;;;;19.54;48.31;101364.34;5109156;28;20034;-50
2022/06/01 08:07:06;;;;;;;1.23;1.13;;;;;;;19.56;47.99;101370.41;5113823;28;20028;-50
2022/06/01 08:09:32;;;;;;;1.13;1.02;;;;;;;19.59;48.32;101374.66;5117979;28;20049;-49
2022/06/01 08:14:41;;;;;;;1.98;1.23;;;;;;;19.62;48.24;101368.94;5118168;28;20044;-51
2022/06/01 08:17:06;;;;;;;1.55;1.13;;;;;;;19.62;48.05;101369.78;5103899;28;20032;-52
2022/06/01 08:19:32;;;;;;;1.73;1.00;;;;;;;19.58;48.21;101365.72;5103647;28;20650;-48
2022/06/01 08:21:57;;;;;;;2.58;1.00;;;;;;;19.62;47.79;101372.47;5117280;28;20035;-50
2022/06/01 08:24:22;;;;;;;1.20;0.80;;;;;;;19.61;47.82;101372.66;5103765;28;20030;-53
2022/06/01 08:26:48;;;;;;;1.00;0.88;;;;;;;19.59;47.96;101372.81;5103667;28;20449;-51
2022/06/01 08:29:13;;;;;;;3.72;1.00;;;;;;;19.58;47.81;101368.41;5085080;28;20031;-49
2022/06/01 08:31:38;;;;;;;1.45;0.90;;;;;;;19.57;48.28;101368.56;5105898;28;20024;-50
2022/06/01 08:34:04;;;;;;;1.15;0.95;;;;;;;19.55;48.22;101368.75;5108952;28;20033;-52
2022/06/01 08:36:30;;;;;;;1.67;1.10;;;;;;;19.55;48.10;101366.03;5113600;28;20050;-53
2022/06/01 08:38:56;;;;;;;1.15;0.90;;;;;;;19.56;47.84;101366.88;5117766;28;20059;-52
2022/06/01 08:41:26;;;;;;;1.10;1.00;;;;;;;19.43;47.96;101346.59;5112350;28;20369;-52
2022/06/01 08:43:54;;;;;;;0.90;0.90;;;;;;;19.60;47.80;101362.84;5090527;28;20020;-48
2022/06/01 08:46:21;;;;;;;1.50;1.15;;;;;;;19.60;47.79;101366.38;5110113;28;20055;-51
2022/06/01 08:48:53;;;;;;;1.10;1.00;;;;;;;19.57;48.05;101349.69;5111553;28;20110;-50
2022/06/01 08:51:24;;;;;;;1.00;0.90;;;;;;;19.59;47.87;101343.13;5110201;28;20535;-51
2022/06/01 08:53:49;;;;;;;0.95;0.80;;;;;;;19.67;47.79;101355.84;5112991;28;20551;-53
2022/06/01 08:56:19;;;;;;;1.25;0.80;;;;;;;19.67;47.68;101367.47;5113164;28;20017;-48
2022/06/01 08:59:03;;;;;;;1.45;1.08;;;;;;;19.67;47.90;101363.94;5092576;28;20118;-49
2022/06/01 09:01:44;;;;;;;1.48;0.95;;;;;;;19.66;47.58;101360.38;5092857;28;20028;-49
2022/06/01 09:04:43;;;;;;;2.05;1.13;;;;;;;19.68;47.91;101365.63;5099839;28;20593;-48
2022/06/01 09:07:27;;;;;;;;;;;;;;;19.67;47.92;101359.38;5093168;28;20016;-49
2022/06/01 09:09:53;;;;;;;1.00;0.90;;;;;;;19.69;47.69;101361.91;5090179;28;19908;-47
2022/06/01 09:12:18;;;;;;;0.80;0.80;;;;;;;19.68;47.76;101354.81;5112432;28;20066;-50
2022/06/01 09:14:49;;;;;;;0.77;0.77;;;;;;;19.64;47.69;101348.06;5108011;28;20381;-47
2022/06/01 09:17:15;;;;;;;0.80;0.80;;;;;;;19.67;47.87;101359.38;5098364;28;20024;-49
2022/06/01 09:22:45;;;;;;;1.15;1.05;;;;;;;19.66;47.93;101373.84;5126123;28;20188;-47
2022/06/01 09:25:17;;;;;;;1.20;0.80;;;;;;;19.68;47.98;101377.25;5120951;28;20035;-51
2022/06/01 09:27:52;;;;;;;1.08;0.90;;;;;;;19.70;48.00;101386.00;5106524;28;20058;-50
2022/06/01 09:30:19;;;;;;;0.70;0.70;;;;;;;19.71;47.99;101387.72;5123888;28;20780;-53
2022/06/01 09:33:03;;;;;;;1.10;1.00;;;;;;;19.74;47.88;101386.53;5122947;28;20091;-50
2022/06/01 09:35:30;;;;;;;1.20;1.05;;;;;;;19.74;48.04;101386.53;5116307;28;20423;-49
2022/06/01 09:37:55;;;;;;;0.95;0.90;;;;;;;19.73;47.71;101396.50;5102071;28;20023;-48
2022/06/01 09:40:23;;;;;;;1.70;0.90;;;;;;;19.73;47.79;101392.94;5120125;28;20076;-49
2022/06/01 09:42:51;;;;;;;0.85;0.80;;;;;;;19.72;47.89;101407.44;5105920;28;20020;-48
2022/06/01 09:45:28;;;;;;;0.90;0.80;;;;;;;19.71;47.96;101421.97;5115852;28;20023;-51
2022/06/01 09:48:09;;;;;;;1.00;0.90;;;;;;;19.70;47.78;101414.84;5126656;27;20020;-48
2022/06/01 09:50:34;;;;;;;3.42;1.52;;;;;;;19.67;47.76;101413.34;5116967;28;20040;-49
2022/06/01 09:53:20;;;;;;;1.00;0.90;;;;;;;19.67;47.88;101421.44;5111724;28;20031;-49
2022/06/01 09:55:53;;;;;;;1.27;0.90;;;;;;;19.64;48.10;101427.13;5091443;28;20418;-50
2022/06/01 10:07:06;;;;;;;0.88;0.80;;;;;;;19.61;48.28;101427.44;5116084;28;20101;-51
2022/06/01 10:09:33;;;;;;;1.10;1.00;;;;;;;19.61;48.69;101426.59;5098263;28;20041;-53
2022/06/01 10:12:15;;;;;;;2.47;1.67;;;;;;;19.61;48.84;101426.59;5095792;28;20028;-52
2022/06/01 10:14:53;;;;;;;1.40;0.93;;;;;;;19.60;48.42;101416.81;5098021;28;20036;-54
2022/06/01 10:17:27;;;;;;;2.30;1.00;;;;;;;19.60;48.58;101408.72;5098637;28;20062;-53
2022/06/01 10:20:09;;;;;;;1.75;1.00;;;;;;;19.60;48.85;101412.25;5114823;28;20385;-53
2022/06/01 10:22:42;;;;;;;0.82;0.80;;;;;;;19.60;48.73;101414.09;5100007;28;20047;-53
2022/06/01 10:25:20;;;;;;;1.58;0.90;;;;;;;19.62;48.65;101410.25;5096437;28;20101;-51
2022/06/01 10:28:01;;;;;;;1.20;0.85;;;;;;;19.64;48.59;101412.81;5099935;28;20023;-49
2022/06/01 10:30:30;;;;;;;2.00;1.10;;;;;;;19.66;48.97;101421.56;5089608;28;20031;-50
2022/06/01 10:32:59;;;;;;;1.15;0.90;;;;;;;19.68;48.41;101419.56;5109474;28;20012;-53
2022/06/01 10:35:31;;;;;;;0.90;0.80;;;;;;;19.70;48.77;101415.69;5087050;28;20031;-53
2022/06/01 10:38:03;;;;;;;3.17;1.10;;;;;;;19.66;48.64;101405.38;5105607;28;20020;-48
2022/06/01 10:40:37;;;;;;;0.98;0.77;;;;;;;19.71;48.34;101403.91;5119726;28;20044;-50
2022/06/01 10:43:16;;;;;;;2.15;0.98;;;;;;;19.77;48.71;101413.19;5098590;28;20085;-50
2022/06/01 10:46:09;;;;;;;0.77;0.70;;;;;;;19.79;48.17;101416.56;5106703;27;20036;-52
2022/06/01 10:48:39;;;;;;;0.85;0.77;;;;;;;19.80;48.53;101406.66;5077939;28;20064;-47
2022/06/01 10:51:16;;;;;;;2.47;0.80;;;;;;;19.82;48.16;101407.31;5106727;28;20020;-50
2022/06/01 10:53:49;;;;;;;1.02;0.85;;;;;;;19.82;48.32;101408.16;5099583;28;20027;-51
2022/06/01 10:56:15;;;;;;;0.88;0.85;;;;;;;19.84;48.33;101411.56;5111238;28;20028;-51
2022/06/01 10:58:41;;;;;;;1.65;1.10;;;;;;;19.85;48.12;101404.31;5113799;28;20024;-50
2022/06/01 11:01:35;;;;;;;1.42;1.17;;;;;;;19.87;48.16;101402.28;5118717;28;20067;-52
2022/06/01 11:04:22;;;;;;;1.30;0.70;;;;;;;19.87;48.47;101402.28;5115066;28;20035;-48
2022/06/01 11:07:02;;;;;;;1.30;1.02;;;;;;;19.89;48.22;101403.81;5113085;28;20090;-51
2022/06/01 11:09:32;;;;;;;1.52;0.90;;;;;;;19.83;48.09;101382.84;5092790;28;20019;-49
2022/06/01 11:12:15;;;;;;;1.88;0.80;;;;;;;19.92;48.06;101397.22;5098260;28;20016;-52
2022/06/01 11:14:53;;;;;;;1.05;0.90;;;;;;;19.92;48.27;101395.41;5119370;28;20047;-48
2022/06/01 11:17:21;;;;;;;1.15;1.05;;;;;;;19.94;48.32;101395.22;5115523;28;20027;-51
2022/06/01 11:19:58;;;;;;;0.95;0.88;;;;;;;19.97;48.33;101400.31;5110096;28;20027;-48
2022/06/01 11:22:49;;;;;;;1.02;0.80;;;;;;;19.98;47.99;101392.03;5114469;28;20045;-48
2022/06/01 11:25:22;;;;;;;1.58;0.90;;;;;;;19.97;47.80;101392.19;5100925;28;20087;-48
2022/06/01 11:28:08;;;;;;;0.80;0.80;;;;;;;19.98;47.96;101396.59;5099050;28;20096;-50
2022/06/01 11:31:03;;;;;;;1.17;1.08;;;;;;;19.96;48.12;101396.75;5086907;28;20057;-50
2022/06/01 11:33:38;;;;;;;1.45;1.00;;;;;;;19.97;48.28;101394.91;5089566;28;20059;-48
2022/06/01 11:36:25;;;;;;;1.33;0.95;;;;;;;20.00;48.18;101396.41;5111532;28;20020;-49
2022/06/01 11:39:28;;;;;;;0.82;0.82;;;;;;;20.01;48.25;101400.78;5092302;27;20047;-52
2022/06/01 11:42:20;;;;;;;1.10;1.00;;;;;;;20.01;48.01;101395.41;5100469;28;20388;-48
2022/06/01 11:44:54;;;;;;;1.50;1.05;;;;;;;20.00;47.73;101393.72;5113054;28;20020;-50
2022/06/01 11:47:21;;;;;;;1.40;1.00;;;;;;;19.89;48.08;101382.22;5116213;27;20022;-49
2022/06/01 11:50:04;;;;;;;1.25;0.93;;;;;;;20.04;48.32;101408.56;5076885;28;20034;-51
2022/06/01 11:52:36;;;;;;;1.48;1.38;;;;;;;20.03;48.33;101405.03;5122354;28;20015;-52
2022/06/01 11:55:10;;;;;;;1.63;1.02;;;;;;;20.02;48.27;101403.34;5086089;28;20514;-50
2022/06/01 11:57:47;;;;;;;1.30;1.10;;;;;;;20.04;48.24;101397.78;5103820;28;20031;-52
2022/06/01 12:00:19;;;;;;;1.30;1.00;;;;;;;20.04;48.06;101390.53;5085617;28;20123;-47
2022/06/01 12:02:45;;;;;;;1.55;1.02;;;;;;;20.04;48.38;101393.22;5103635;28;20035;-50
2022/06/01 12:05:23;;;;;;;1.13;0.98;;;;;;;20.07;48.17;101390.19;5085567;28;20073;-50
2022/06/01 12:07:55;;;;;;;1.20;1.10;;;;;;;20.07;48.01;101392.91;5104014;28;20077;-50